Time;durP1;ratioP1;P1;durP2;ratioP2;P2;SDS_P1;SDS_P2;PMS_P1;PMS_P2;Temp;Humidity;BMP_temperature;BMP_pressure;BME280_temperature;BME280_humidity;BME280_pressure;Samples;Min_cycle;Max_cycle;Signal;HPM_P1;HPM_P2
2022/03/05 00:01:46;;;;;;;11.98;5.68;;;-0.30;99.90;;;;;;4825269;29;20054;-76
2022/03/05 00:04:13;;;;;;;11.68;5.38;;;-0.30;99.90;;;;;;4824775;29;20049;-74
2022/03/05 00:06:38;;;;;;;14.07;5.78;;;-0.30;99.90;;;;;;4824997;29;20061;-74
2022/03/05 00:09:04;;;;;;;13.98;5.53;;;-0.40;99.90;;;;;;4793335;29;20070;-75
2022/03/05 00:11:30;;;;;;;13.02;5.63;;;-0.40;99.90;;;;;;4809004;29;20054;-74
2022/03/05 00:13:55;;;;;;;12.70;5.50;;;-0.40;99.90;;;;;;4824150;29;20491;-75
2022/03/05 00:16:21;;;;;;;12.27;5.72;;;-0.40;99.90;;;;;;4824092;29;20051;-73
2022/03/05 00:18:48;;;;;;;12.57;5.32;;;-0.40;99.90;;;;;;4824892;29;20039;-74
2022/03/05 00:21:13;;;;;;;12.48;5.25;;;-0.40;99.90;;;;;;4807725;29;20055;-75
2022/03/05 00:23:39;;;;;;;12.15;5.97;;;-0.50;99.90;;;;;;4824747;29;20408;-75
2022/03/05 00:26:05;;;;;;;14.50;5.05;;;0.70;99.90;;;;;;4824591;29;20055;-74
2022/03/05 00:28:30;;;;;;;14.23;5.85;;;-0.50;99.90;;;;;;4793297;29;20054;-74
2022/03/05 00:30:58;;;;;;;14.77;6.47;;;-0.50;99.90;;;;;;4823732;29;20054;-74
2022/03/05 00:33:24;;;;;;;11.10;4.95;;;-0.50;99.90;;;;;;4824977;29;20050;-74
2022/03/05 00:35:50;;;;;;;13.15;6.07;;;-0.60;99.90;;;;;;4824413;29;20050;-75
2022/03/05 00:38:15;;;;;;;12.63;5.38;;;-0.60;99.90;;;;;;4824570;29;20044;-74
2022/03/05 00:40:41;;;;;;;14.73;5.55;;;-0.60;99.90;;;;;;4824669;29;20487;-74
2022/03/05 00:43:07;;;;;;;11.88;6.05;;;-0.60;99.90;;;;;;4824791;29;20050;-74
2022/03/05 00:45:33;;;;;;;13.65;6.32;;;-0.70;99.90;;;;;;4823239;29;20050;-74
2022/03/05 00:47:58;;;;;;;13.07;5.88;;;-0.70;99.90;;;;;;4824768;29;20049;-74
2022/03/05 00:50:24;;;;;;;14.00;5.97;;;-0.70;99.90;;;;;;4824228;29;20071;-74
2022/03/05 00:52:50;;;;;;;17.65;5.53;;;-0.70;99.90;;;;;;4807842;29;20083;-74
2022/03/05 00:55:15;;;;;;;13.05;5.32;;;-0.80;99.90;;;;;;4824291;29;20057;-75
2022/03/05 00:57:41;;;;;;;13.73;5.90;;;-0.80;99.90;;;;;;4808239;29;20046;-74
2022/03/05 01:00:10;;;;;;;13.27;6.00;;;-0.80;99.90;;;;;;4824169;29;20062;-75
2022/03/05 01:02:37;;;;;;;13.60;6.13;;;-0.90;99.90;;;;;;4824426;29;20054;-73
2022/03/05 01:05:03;;;;;;;11.68;5.18;;;-0.90;99.90;;;;;;4824371;29;20046;-73
2022/03/05 01:07:29;;;;;;;14.02;6.60;;;-0.90;99.90;;;;;;4807576;29;20050;-75
2022/03/05 01:09:54;;;;;;;13.52;5.93;;;-0.90;99.90;;;;;;4824193;29;20058;-75
2022/03/05 01:12:22;;;;;;;12.38;5.43;;;-0.90;99.90;;;;;;4824417;29;20129;-75
2022/03/05 01:14:48;;;;;;;11.70;5.32;;;-0.90;99.90;;;;;;4824076;29;20107;-75
2022/03/05 01:17:13;;;;;;;14.90;6.22;;;-0.90;99.90;;;;;;4824184;29;20050;-75
2022/03/05 01:19:39;;;;;;;13.57;5.85;;;-1.00;99.90;;;;;;4822932;29;20118;-76
2022/03/05 01:22:05;;;;;;;14.35;6.50;;;-1.00;99.90;;;;;;4822747;29;20050;-75
2022/03/05 01:24:31;;;;;;;12.20;5.43;;;-1.00;99.90;;;;;;4823905;29;20114;-75
2022/03/05 01:26:56;;;;;;;15.13;5.53;;;-1.00;99.90;;;;;;4824031;29;20054;-75
2022/03/05 01:29:22;;;;;;;12.20;5.38;;;-1.00;99.90;;;;;;4824047;29;20061;-75
2022/03/05 01:31:48;;;;;;;14.13;5.90;;;-1.00;99.90;;;;;;4822875;29;20054;-73
2022/03/05 01:34:13;;;;;;;13.43;5.88;;;-1.00;99.90;;;;;;4823891;29;20058;-75
2022/03/05 01:36:39;;;;;;;16.17;6.90;;;-1.10;99.90;;;;;;4823957;29;20065;-75
2022/03/05 01:39:05;;;;;;;16.15;6.70;;;-1.00;99.90;;;;;;4823462;29;20415;-75
2022/03/05 01:41:31;;;;;;;15.98;6.38;;;-1.10;99.90;;;;;;4822459;29;20431;-74
2022/03/05 01:43:57;;;;;;;13.25;6.13;;;-1.10;99.90;;;;;;4824228;29;20035;-75
2022/03/05 01:46:34;;;;;;;14.35;5.97;;;-1.10;99.90;;;;;;4823929;29;20050;-75
2022/03/05 01:49:02;;;;;;;14.73;6.15;;;-1.10;99.90;;;;;;4807467;29;20054;-75
2022/03/05 01:51:27;;;;;;;13.43;6.03;;;-1.10;99.90;;;;;;4823828;29;20092;-75
2022/03/05 01:53:53;;;;;;;14.60;6.07;;;-1.20;99.90;;;;;;4823324;29;20073;-75
2022/03/05 01:56:19;;;;;;;14.27;6.35;;;-1.30;99.90;;;;;;4823395;29;20490;-75
2022/03/05 01:58:45;;;;;;;13.88;6.40;;;-1.30;99.90;;;;;;4823670;29;20176;-75
2022/03/05 02:01:11;;;;;;;16.15;6.80;;;-1.30;99.90;;;;;;4823601;29;20533;-75
2022/03/05 02:03:37;;;;;;;15.00;6.72;;;-1.40;99.90;;;;;;4823692;29;20042;-75
2022/03/05 02:06:03;;;;;;;13.40;6.22;;;-1.40;99.90;;;;;;4823711;29;20415;-75
2022/03/05 02:08:29;;;;;;;13.93;6.30;;;-1.40;99.90;;;;;;4806887;29;20050;-74
2022/03/05 02:10:55;;;;;;;16.02;6.40;;;-1.40;99.90;;;;;;4823048;29;20050;-75
2022/03/05 02:13:20;;;;;;;15.00;6.72;;;-1.50;99.90;;;;;;4807328;29;20065;-75
2022/03/05 02:15:53;;;;;;;14.20;6.07;;;-1.40;99.90;;;;;;4822273;29;20058;-75
2022/03/05 02:18:18;;;;;;;;;;;-1.40;99.90;;;;;;4823989;29;20096;-74
2022/03/05 02:20:44;;;;;;;14.45;7.03;;;-1.40;99.90;;;;;;4822507;29;20378;-74
2022/03/05 02:23:09;;;;;;;16.10;7.57;;;-1.50;99.90;;;;;;4823237;29;20047;-75
2022/03/05 02:25:35;;;;;;;13.88;6.90;;;-1.50;99.90;;;;;;4806643;29;20042;-74
2022/03/05 02:28:01;;;;;;;16.25;7.10;;;-1.40;99.90;;;;;;4807117;29;20061;-74
2022/03/05 02:30:27;;;;;;;15.00;7.25;;;-1.50;99.90;;;;;;4823626;29;20042;-75
2022/03/05 02:32:53;;;;;;;16.58;6.97;;;-1.50;99.90;;;;;;4823377;29;20529;-74
2022/03/05 02:35:18;;;;;;;14.38;6.40;;;-1.50;99.90;;;;;;4806858;29;20063;-75
2022/03/05 02:37:44;;;;;;;12.80;6.28;;;-1.40;99.90;;;;;;4823087;29;20042;-75
2022/03/05 02:40:10;;;;;;;15.07;6.68;;;-1.40;99.90;;;;;;4822796;29;20050;-75
2022/03/05 02:42:36;;;;;;;14.60;6.47;;;-1.40;99.90;;;;;;4823277;29;20050;-75
2022/03/05 02:45:01;;;;;;;14.32;5.65;;;-1.40;99.90;;;;;;4823378;29;20376;-74
2022/03/05 02:47:27;;;;;;;13.30;6.47;;;-1.40;99.90;;;;;;4823384;29;20051;-75
2022/03/05 02:49:53;;;;;;;15.00;6.50;;;-1.40;99.90;;;;;;4824121;29;20089;-75
2022/03/05 02:52:18;;;;;;;14.25;6.38;;;-1.40;99.90;;;;;;4826245;29;20142;-75
2022/03/05 02:54:44;;;;;;;13.27;6.25;;;-1.40;99.90;;;;;;4826248;29;20054;-75
2022/03/05 02:57:10;;;;;;;16.48;7.03;;;-1.40;99.90;;;;;;4826109;29;20050;-73
2022/03/05 02:59:35;;;;;;;13.32;6.22;;;-1.40;99.90;;;;;;4826221;29;20073;-75
2022/03/05 03:02:01;;;;;;;13.55;6.55;;;-1.40;99.90;;;;;;4826405;29;20066;-74
2022/03/05 03:04:26;;;;;;;13.88;6.03;;;-1.40;99.90;;;;;;4826375;29;20046;-75
2022/03/05 03:06:52;;;;;;;14.95;6.20;;;-1.50;99.90;;;;;;4810015;29;20122;-75
2022/03/05 03:09:18;;;;;;;12.88;6.10;;;-1.50;99.90;;;;;;4826063;29;20050;-75
2022/03/05 03:11:43;;;;;;;14.95;6.68;;;-1.50;99.90;;;;;;4809348;29;20056;-75
2022/03/05 03:14:09;;;;;;;15.90;6.30;;;-1.50;99.90;;;;;;4824913;29;20404;-74
2022/03/05 03:16:35;;;;;;;12.88;5.43;;;-1.50;99.90;;;;;;4826418;29;20492;-74
2022/03/05 03:19:00;;;;;;;14.52;6.03;;;-0.80;99.90;;;;;;4809982;29;20051;-75
2022/03/05 03:21:26;;;;;;;12.50;6.05;;;-1.50;99.90;;;;;;4809975;29;20054;-75
2022/03/05 03:23:52;;;;;;;15.20;5.75;;;-1.50;99.90;;;;;;4824685;29;20058;-75
2022/03/05 03:26:17;;;;;;;12.23;6.07;;;-1.50;99.90;;;;;;4825632;29;20049;-75
2022/03/05 03:28:43;;;;;;;12.95;6.10;;;-1.50;99.90;;;;;;4809261;29;20107;-75
2022/03/05 03:31:09;;;;;;;12.32;6.05;;;-1.50;99.90;;;;;;4823933;29;20061;-75
2022/03/05 03:33:34;;;;;;;12.25;5.68;;;-1.60;99.90;;;;;;4825797;29;20136;-74
2022/03/05 03:36:00;;;;;;;14.85;5.90;;;-1.60;99.90;;;;;;4825753;29;20166;-75
2022/03/05 03:38:26;;;;;;;13.55;6.20;;;-1.60;99.90;;;;;;4825620;29;20146;-75
2022/03/05 03:40:51;;;;;;;13.30;5.63;;;-1.60;99.90;;;;;;4824587;29;20081;-76
2022/03/05 03:43:17;;;;;;;12.10;5.47;;;-1.60;99.90;;;;;;4825385;29;20047;-75
2022/03/05 03:45:43;;;;;;;14.38;5.07;;;-1.60;99.90;;;;;;4825585;29;20039;-75
2022/03/05 03:48:08;;;;;;;13.38;5.65;;;-1.60;99.90;;;;;;4809089;29;20142;-75
2022/03/05 03:50:34;;;;;;;12.90;5.50;;;-1.60;99.90;;;;;;4818089;29;20042;-75
2022/03/05 03:53:00;;;;;;;16.02;5.32;;;-1.50;99.90;;;;;;4825516;29;20054;-75
2022/03/05 03:55:26;;;;;;;14.73;5.88;;;-1.50;99.90;;;;;;4808404;29;20066;-75
2022/03/05 03:57:52;;;;;;;13.63;5.50;;;-1.50;99.90;;;;;;4825164;29;20065;-75
2022/03/05 04:00:19;;;;;;;12.60;5.80;;;-1.50;99.90;;;;;;4808832;29;20498;-75
2022/03/05 04:02:45;;;;;;;15.27;5.38;;;-0.60;99.90;;;;;;4824304;29;20103;-75
2022/03/05 04:05:12;;;;;;;18.13;5.53;;;-1.50;99.90;;;;;;4808861;29;20046;-75
2022/03/05 04:10:23;;;;;;;14.60;5.50;;;-1.50;99.90;;;;;;4808466;29;20062;-75
2022/03/05 04:12:48;;;;;;;14.25;5.13;;;-1.50;99.90;;;;;;4808570;29;20404;-74
2022/03/05 04:15:14;;;;;;;11.27;4.60;;;-1.50;99.90;;;;;;4823258;29;20130;-74
2022/03/05 04:17:39;;;;;;;12.65;5.15;;;-1.50;99.90;;;;;;4825111;29;20073;-75
2022/03/05 04:20:07;;;;;;;13.05;5.38;;;-1.50;99.90;;;;;;4825023;29;20166;-74
2022/03/05 04:22:33;;;;;;;11.70;4.90;;;-1.60;99.90;;;;;;4825028;29;20133;-75
2022/03/05 04:24:59;;;;;;;13.25;6.13;;;-1.60;99.90;;;;;;4824901;29;20042;-75
2022/03/05 04:27:25;;;;;;;12.35;4.60;;;-1.60;99.90;;;;;;4808307;29;20522;-75
2022/03/05 04:29:51;;;;;;;15.50;6.18;;;-1.60;99.90;;;;;;4824342;29;20082;-76
2022/03/05 04:32:16;;;;;;;12.07;4.82;;;-1.70;99.90;;;;;;4824759;29;20085;-76
2022/03/05 04:34:42;;;;;;;12.00;4.78;;;-1.70;99.90;;;;;;4824608;29;20085;-76
2022/03/05 04:37:08;;;;;;;12.55;5.50;;;-1.70;99.90;;;;;;4824905;29;20055;-77
2022/03/05 04:39:33;;;;;;;13.48;4.80;;;-1.70;99.90;;;;;;4808407;29;20137;-76
2022/03/05 04:41:59;;;;;;;13.10;4.85;;;-1.70;99.90;;;;;;4824659;29;20058;-76
2022/03/05 04:44:25;;;;;;;12.23;5.57;;;-1.80;99.90;;;;;;4824406;29;20054;-73
2022/03/05 04:46:50;;;;;;;12.68;4.88;;;-1.80;99.90;;;;;;4823005;29;20111;-75
2022/03/05 04:49:16;;;;;;;13.27;5.10;;;-1.80;99.90;;;;;;4822997;29;20062;-76
2022/03/05 04:51:42;;;;;;;13.05;5.63;;;-1.80;99.90;;;;;;4823483;29;20496;-75
2022/03/05 04:54:07;;;;;;;11.98;5.20;;;-1.80;99.90;;;;;;4824505;29;20047;-76
2022/03/05 04:56:33;;;;;;;12.70;5.07;;;-1.80;99.90;;;;;;4807864;29;20547;-75
2022/03/05 04:58:59;;;;;;;13.90;4.95;;;-1.80;99.90;;;;;;4824254;29;20127;-77
2022/03/05 05:01:24;;;;;;;15.13;5.68;;;-1.80;99.90;;;;;;4823990;29;20062;-76
2022/03/05 05:03:50;;;;;;;14.18;5.30;;;-1.80;99.90;;;;;;4823035;29;20133;-76
2022/03/05 05:06:16;;;;;;;12.52;5.53;;;-1.90;99.90;;;;;;4824153;29;20046;-76
2022/03/05 05:08:42;;;;;;;13.20;5.50;;;-1.90;99.90;;;;;;4824253;29;20057;-76
2022/03/05 05:11:07;;;;;;;12.00;5.90;;;-1.90;99.90;;;;;;4807549;29;20054;-76
2022/03/05 05:13:33;;;;;;;13.15;5.53;;;-1.90;99.90;;;;;;4823683;29;20061;-74
2022/03/05 05:16:00;;;;;;;12.38;5.30;;;-1.90;99.90;;;;;;4807616;29;20114;-77
2022/03/05 05:18:25;;;;;;;11.73;5.13;;;-1.80;99.90;;;;;;4792421;29;20046;-76
2022/03/05 05:20:51;;;;;;;14.80;6.00;;;-1.80;99.90;;;;;;4823179;29;20129;-76
2022/03/05 05:23:17;;;;;;;16.08;5.60;;;-1.80;99.90;;;;;;4823045;29;20073;-76
2022/03/05 05:25:43;;;;;;;14.60;6.05;;;-1.80;99.90;;;;;;4822648;29;20076;-76
2022/03/05 05:28:09;;;;;;;11.32;5.22;;;-1.80;99.90;;;;;;4824014;29;20053;-76
2022/03/05 05:30:34;;;;;;;12.57;5.75;;;-1.80;99.90;;;;;;4816741;29;20404;-76
2022/03/05 05:33:00;;;;;;;13.65;5.22;;;-1.80;99.90;;;;;;4807235;29;20066;-76
2022/03/05 05:35:26;;;;;;;12.13;4.60;;;-1.80;99.90;;;;;;4823782;29;20135;-77
2022/03/05 05:37:52;;;;;;;11.35;4.82;;;-1.80;99.90;;;;;;4824869;29;20050;-76
2022/03/05 05:40:18;;;;;;;14.13;5.88;;;-1.80;99.90;;;;;;4828212;29;20061;-76
2022/03/05 05:42:44;;;;;;;12.65;5.68;;;-1.80;99.90;;;;;;4811454;29;20043;-76
2022/03/05 05:45:10;;;;;;;14.40;5.72;;;-1.80;99.90;;;;;;4826891;29;20423;-75
2022/03/05 05:47:36;;;;;;;12.45;5.10;;;-1.80;99.90;;;;;;4825751;29;20116;-74
2022/03/05 05:50:05;;;;;;;13.18;5.35;;;-1.80;99.90;;;;;;4807775;29;20421;-76
2022/03/05 05:52:31;;;;;;;13.07;4.63;;;-1.80;99.90;;;;;;4824379;29;20154;-76
2022/03/05 05:54:57;;;;;;;10.77;5.10;;;-1.80;99.90;;;;;;4823899;29;20475;-76
2022/03/05 05:57:23;;;;;;;13.63;5.43;;;-1.90;99.90;;;;;;4822468;29;20050;-76
2022/03/05 05:59:48;;;;;;;12.27;5.57;;;-1.90;99.90;;;;;;4823816;29;20142;-77
2022/03/05 06:02:14;;;;;;;15.45;5.30;;;-1.40;99.90;;;;;;4823756;29;20437;-77
2022/03/05 06:04:40;;;;;;;13.13;6.28;;;-1.80;99.90;;;;;;4823415;29;20050;-77
2022/03/05 06:07:05;;;;;;;15.00;5.22;;;-1.90;99.90;;;;;;4823754;29;20415;-77
2022/03/05 06:09:31;;;;;;;14.35;6.38;;;-1.80;99.90;;;;;;4823607;29;20403;-77
2022/03/05 06:11:57;;;;;;;13.25;5.68;;;-1.80;99.90;;;;;;4822335;29;20062;-77
2022/03/05 06:14:22;;;;;;;13.93;6.03;;;-1.10;99.90;;;;;;4806676;29;20063;-76
2022/03/05 06:16:48;;;;;;;13.68;6.38;;;-1.80;99.90;;;;;;4823556;29;20462;-77
2022/03/05 06:19:14;;;;;;;11.77;5.07;;;-1.80;99.90;;;;;;4821862;29;20051;-77
2022/03/05 06:21:39;;;;;;;14.88;5.70;;;-1.80;99.90;;;;;;4823263;29;20183;-76
2022/03/05 06:24:07;;;;;;;13.43;6.60;;;-1.80;99.90;;;;;;4823267;29;20066;-76
2022/03/05 06:26:33;;;;;;;12.93;5.50;;;-1.70;99.90;;;;;;4826957;29;20377;-77
2022/03/05 06:28:59;;;;;;;13.88;6.35;;;-1.70;99.90;;;;;;4826733;29;20074;-74
2022/03/05 06:31:25;;;;;;;14.02;6.50;;;-1.70;99.90;;;;;;4825456;29;20062;-77
2022/03/05 06:33:50;;;;;;;13.35;5.45;;;-1.70;99.90;;;;;;4825597;29;20058;-73
2022/03/05 06:36:16;;;;;;;17.77;6.85;;;-1.70;99.90;;;;;;4824779;29;20125;-77
2022/03/05 06:38:42;;;;;;;15.57;6.47;;;-1.60;99.90;;;;;;4826559;29;20054;-76
2022/03/05 06:41:07;;;;;;;18.33;7.53;;;-1.60;99.90;;;;;;4825569;29;20085;-77
2022/03/05 06:43:33;;;;;;;18.27;7.80;;;-1.60;99.90;;;;;;4825393;29;20535;-76
2022/03/05 06:45:59;;;;;;;14.73;6.95;;;-1.60;99.90;;;;;;4809879;29;20463;-75
2022/03/05 06:48:24;;;;;;;18.15;7.15;;;-1.50;99.90;;;;;;4826249;29;20137;-76
2022/03/05 06:50:50;;;;;;;16.67;7.90;;;-1.10;99.90;;;;;;4825977;29;20058;-74
2022/03/05 06:53:16;;;;;;;15.38;6.38;;;-1.50;99.90;;;;;;4826298;29;20043;-76
2022/03/05 06:55:41;;;;;;;15.45;7.43;;;-1.50;99.90;;;;;;4826496;29;20389;-72
2022/03/05 06:58:07;;;;;;;15.60;6.80;;;-1.50;99.90;;;;;;4825145;29;20369;-74
2022/03/05 07:00:33;;;;;;;14.80;7.22;;;-1.40;99.90;;;;;;4809680;29;20062;-74
2022/03/05 07:02:58;;;;;;;14.82;6.88;;;-1.40;99.90;;;;;;4826385;29;20074;-74
2022/03/05 07:05:24;;;;;;;18.02;7.43;;;-1.40;99.90;;;;;;4825864;29;20038;-74
2022/03/05 07:07:50;;;;;;;16.88;6.97;;;-1.30;99.90;;;;;;4809246;29;20060;-74
2022/03/05 07:10:15;;;;;;;14.68;7.20;;;-1.20;99.90;;;;;;4826144;29;20556;-74
2022/03/05 07:12:41;;;;;;;15.75;6.93;;;-1.20;99.90;;;;;;4826188;29;20047;-74
2022/03/05 07:15:07;;;;;;;16.13;7.30;;;-1.20;99.90;;;;;;4794612;29;20061;-75
2022/03/05 07:17:33;;;;;;;16.25;7.45;;;-1.10;99.90;;;;;;4824840;29;20133;-73
2022/03/05 07:19:59;;;;;;;18.15;7.53;;;-1.00;99.90;;;;;;4826007;29;20138;-75
2022/03/05 07:22:25;;;;;;;18.50;8.25;;;-1.00;99.90;;;;;;4809458;29;20810;-74
2022/03/05 07:24:51;;;;;;;15.43;7.07;;;-0.90;99.90;;;;;;4825741;29;20050;-75
2022/03/05 07:27:17;;;;;;;16.15;7.38;;;-0.90;99.90;;;;;;4809621;29;20054;-75
2022/03/05 07:29:43;;;;;;;21.65;8.30;;;-0.90;99.90;;;;;;4809153;29;20061;-74
2022/03/05 07:32:10;;;;;;;14.80;7.22;;;-0.10;99.90;;;;;;4809332;29;20050;-72
2022/03/05 07:34:36;;;;;;;16.17;7.78;;;-0.70;99.90;;;;;;4826034;29;20050;-76
2022/03/05 07:37:02;;;;;;;17.33;8.10;;;-0.70;99.90;;;;;;4825637;29;20060;-76
2022/03/05 07:39:28;;;;;;;16.45;7.05;;;-0.60;99.90;;;;;;4825647;29;20050;-74
2022/03/05 07:41:54;;;;;;;16.45;6.88;;;-0.60;99.90;;;;;;4825630;29;20056;-75
2022/03/05 07:44:20;;;;;;;18.10;7.93;;;-0.50;99.90;;;;;;4809204;29;20553;-76
2022/03/05 07:46:46;;;;;;;14.25;6.95;;;-0.50;99.90;;;;;;4825870;29;20136;-75
2022/03/05 07:49:12;;;;;;;20.70;7.65;;;-0.50;99.90;;;;;;4825959;29;20455;-74
2022/03/05 07:51:38;;;;;;;17.77;8.30;;;-0.40;99.90;;;;;;4825631;29;20070;-73
2022/03/05 07:54:05;;;;;;;17.00;7.70;;;-0.30;99.90;;;;;;4825376;29;20053;-77
2022/03/05 07:56:31;;;;;;;15.50;7.75;;;-0.30;99.90;;;;;;4825411;29;20058;-76
2022/03/05 07:58:56;;;;;;;16.48;7.88;;;-0.30;99.90;;;;;;4825093;29;20065;-72
2022/03/05 08:01:22;;;;;;;16.88;7.68;;;-0.20;99.90;;;;;;4801877;29;20491;-72
2022/03/05 08:03:48;;;;;;;17.27;7.20;;;-0.10;99.90;;;;;;4819083;29;20049;-74
2022/03/05 08:06:14;;;;;;;16.17;7.57;;;0.80;99.90;;;;;;4833772;29;20117;-75
2022/03/05 08:08:39;;;;;;;16.60;7.55;;;0.00;99.90;;;;;;4833097;29;20050;-75
2022/03/05 08:11:05;;;;;;;17.55;7.97;;;0.00;99.90;;;;;;4834769;29;20038;-76
2022/03/05 08:13:31;;;;;;;18.17;7.88;;;0.10;99.90;;;;;;4832983;29;20087;-75
2022/03/05 08:15:57;;;;;;;18.13;7.78;;;0.30;99.90;;;;;;4802052;29;20060;-76
2022/03/05 08:18:22;;;;;;;15.73;8.18;;;0.20;99.90;;;;;;4834623;29;20522;-76
2022/03/05 08:20:48;;;;;;;16.67;7.70;;;0.20;99.90;;;;;;4832691;29;20058;-76
2022/03/05 08:23:17;;;;;;;19.30;7.00;;;0.30;99.90;;;;;;4819943;29;20055;-76
2022/03/05 08:25:43;;;;;;;18.38;7.13;;;0.40;99.90;;;;;;4833533;29;20062;-73
2022/03/05 08:28:09;;;;;;;18.77;7.45;;;0.40;99.90;;;;;;4817965;29;20050;-75
2022/03/05 08:30:34;;;;;;;16.63;6.97;;;0.50;99.90;;;;;;4834162;29;20049;-74
2022/03/05 08:33:00;;;;;;;19.05;8.48;;;0.50;99.90;;;;;;4834544;29;20050;-73
2022/03/05 08:35:27;;;;;;;19.23;7.43;;;0.60;99.90;;;;;;4834350;29;20054;-72
2022/03/05 08:37:53;;;;;;;17.38;8.15;;;0.70;99.90;;;;;;4832748;29;20053;-76
2022/03/05 08:40:20;;;;;;;17.13;7.63;;;0.80;99.90;;;;;;4831640;29;20050;-74
2022/03/05 08:42:48;;;;;;;16.58;7.45;;;1.80;99.90;;;;;;4833919;29;20046;-76
2022/03/05 08:45:14;;;;;;;18.35;7.70;;;0.90;99.90;;;;;;4832578;29;20078;-74
2022/03/05 08:47:40;;;;;;;17.75;7.35;;;1.00;99.90;;;;;;4831896;29;20078;-76
2022/03/05 08:50:06;;;;;;;19.08;8.10;;;1.10;99.90;;;;;;4833896;29;20538;-72
2022/03/05 08:52:36;;;;;;;17.42;7.68;;;0.50;99.90;;;;;;4836630;29;20077;-72
2022/03/05 08:55:13;;;;;;;18.33;8.18;;;1.20;99.90;;;;;;4833887;29;20120;-72
2022/03/05 08:57:39;;;;;;;18.02;7.72;;;1.30;99.90;;;;;;4833013;29;20065;-76
2022/03/05 09:00:08;;;;;;;19.08;7.55;;;1.40;99.90;;;;;;4825319;29;20063;-75
2022/03/05 09:02:34;;;;;;;16.80;7.68;;;1.40;99.90;;;;;;4831356;29;20072;-75
2022/03/05 09:05:00;;;;;;;17.23;7.70;;;1.50;99.90;;;;;;4816037;29;20543;-75
2022/03/05 09:07:25;;;;;;;19.15;8.40;;;1.60;99.90;;;;;;4839976;29;20527;-73
2022/03/05 09:09:51;;;;;;;16.85;7.00;;;1.70;99.90;;;;;;4819195;29;20061;-73
2022/03/05 09:12:17;;;;;;;17.38;7.93;;;1.80;99.90;;;;;;4829318;29;20057;-73
2022/03/05 09:14:42;;;;;;;17.33;7.18;;;2.00;99.90;;;;;;4824145;29;20099;-76
2022/03/05 09:17:08;;;;;;;19.00;8.07;;;2.60;99.90;;;;;;4823966;29;20053;-77
2022/03/05 09:19:34;;;;;;;17.38;7.90;;;2.30;99.90;;;;;;4823676;29;20407;-74
2022/03/05 09:22:00;;;;;;;18.00;7.97;;;2.60;99.90;;;;;;4830661;29;20054;-78
2022/03/05 09:24:25;;;;;;;19.58;8.23;;;2.70;99.90;;;;;;4837679;29;20455;-77
2022/03/05 09:26:51;;;;;;;18.50;8.70;;;2.90;99.90;;;;;;4841857;29;20079;-77
2022/03/05 09:29:17;;;;;;;19.85;9.35;;;3.00;99.90;;;;;;4839589;29;20098;-77
2022/03/05 09:31:42;;;;;;;21.73;9.32;;;3.00;99.90;;;;;;4824131;29;20407;-77
2022/03/05 09:34:08;;;;;;;18.20;8.85;;;3.20;99.90;;;;;;4824136;29;20422;-75
2022/03/05 09:36:34;;;;;;;18.27;9.07;;;3.30;99.90;;;;;;4817991;29;20060;-73
2022/03/05 09:39:00;;;;;;;19.50;8.95;;;3.40;99.90;;;;;;4815006;29;20186;-75
2022/03/05 09:41:26;;;;;;;20.15;8.77;;;3.50;99.90;;;;;;4803339;29;20058;-75
2022/03/05 09:43:51;;;;;;;19.00;8.30;;;3.50;99.90;;;;;;4828769;29;20519;-75
2022/03/05 09:46:22;;;;;;;20.17;9.00;;;3.40;99.90;;;;;;4830292;29;20046;-73
2022/03/05 09:48:53;;;;;;;21.50;9.15;;;3.50;99.90;;;;;;4813549;29;20050;-75
2022/03/05 09:51:22;;;;;;;17.95;8.63;;;3.70;99.90;;;;;;4828914;29;20055;-76
2022/03/05 09:53:52;;;;;;;20.10;8.50;;;3.60;99.90;;;;;;4828717;29;20501;-74
2022/03/05 09:56:17;;;;;;;17.35;8.40;;;3.70;99.90;;;;;;4830965;29;20047;-73
2022/03/05 09:58:43;;;;;;;18.48;8.48;;;3.70;99.90;;;;;;4832217;29;20072;-75
2022/03/05 10:01:09;;;;;;;20.25;8.40;;;3.70;99.90;;;;;;4836247;29;20095;-75
2022/03/05 10:03:44;;;;;;;19.98;8.93;;;3.70;99.90;;;;;;4833253;29;20126;-77
2022/03/05 10:06:19;;;;;;;17.83;8.32;;;3.70;99.90;;;;;;4835067;29;20419;-74
2022/03/05 10:08:46;;;;;;;21.20;9.18;;;3.70;99.90;;;;;;4833881;29;20404;-76
2022/03/05 10:11:12;;;;;;;15.75;7.45;;;3.80;99.90;;;;;;4834160;29;20042;-75
2022/03/05 10:13:40;;;;;;;18.77;8.27;;;3.80;99.90;;;;;;4826983;29;20054;-76
2022/03/05 10:16:28;;;;;;;17.67;7.72;;;3.80;99.90;;;;;;4833842;29;20051;-76
2022/03/05 10:18:54;;;;;;;18.95;7.93;;;3.80;99.90;;;;;;4837451;29;20046;-74
2022/03/05 10:21:30;;;;;;;19.25;7.18;;;3.90;99.90;;;;;;4838929;29;20398;-75
2022/03/05 10:24:08;;;;;;;16.63;7.78;;;4.00;99.90;;;;;;4830089;29;20050;-76
2022/03/05 10:26:53;;;;;;;17.67;7.80;;;4.10;99.90;;;;;;4829296;29;20054;-76
2022/03/05 10:29:21;;;;;;;16.90;7.88;;;4.20;99.90;;;;;;4814387;29;20062;-75
2022/03/05 10:31:57;;;;;;;17.45;7.15;;;4.20;99.90;;;;;;4831490;29;20142;-73
2022/03/05 10:34:22;;;;;;;17.17;7.90;;;4.40;99.90;;;;;;4837089;29;20054;-73
2022/03/05 10:37:03;;;;;;;17.83;8.35;;;4.40;99.90;;;;;;4840067;29;20395;-76
2022/03/05 10:39:29;;;;;;;20.92;8.95;;;4.40;99.90;;;;;;4815894;29;20522;-75
2022/03/05 10:41:55;;;;;;;19.13;8.30;;;4.50;99.90;;;;;;4805636;29;20045;-74
2022/03/05 10:44:22;;;;;;;17.75;7.63;;;4.60;99.90;;;;;;4834230;29;20060;-72
2022/03/05 10:46:59;;;;;;;18.38;7.72;;;4.70;99.90;;;;;;4825443;29;20042;-75
2022/03/05 10:49:38;;;;;;;16.77;7.78;;;4.70;99.90;;;;;;4833370;29;20058;-73
2022/03/05 10:52:04;;;;;;;17.52;8.40;;;4.80;99.90;;;;;;4833971;29;20052;-75
2022/03/05 10:54:39;;;;;;;18.75;8.35;;;4.70;99.90;;;;;;4834433;29;20054;-73
2022/03/05 10:57:21;;;;;;;19.30;9.05;;;4.90;99.90;;;;;;4836987;29;20054;-74
2022/03/05 10:59:52;;;;;;;17.40;8.45;;;4.90;99.90;;;;;;4835663;29;20058;-75
2022/03/05 11:02:20;;;;;;;18.77;9.13;;;4.90;99.90;;;;;;4843255;29;20054;-76
2022/03/05 11:04:46;;;;;;;18.98;8.88;;;4.90;99.90;;;;;;4844614;29;20075;-74
2022/03/05 11:07:16;;;;;;;19.10;9.13;;;5.00;99.90;;;;;;4833494;29;20077;-76
2022/03/05 11:09:45;;;;;;;19.25;9.90;;;5.00;99.90;;;;;;4833441;29;20198;-77
2022/03/05 11:12:18;;;;;;;20.35;8.82;;;5.50;99.90;;;;;;4835444;29;20132;-74
2022/03/05 11:14:46;;;;;;;22.45;8.68;;;5.20;99.90;;;;;;4826640;29;20050;-76
2022/03/05 11:17:12;;;;;;;22.15;9.45;;;5.20;99.90;;;;;;4827794;29;20083;-77
2022/03/05 11:19:38;;;;;;;19.85;9.82;;;5.30;99.90;;;;;;4844592;29;20093;-74
2022/03/05 11:22:05;;;;;;;20.02;9.10;;;5.30;99.90;;;;;;4828160;29;20058;-77
2022/03/05 11:24:31;;;;;;;17.15;8.80;;;5.50;99.90;;;;;;4828149;29;20536;-76
2022/03/05 11:26:57;;;;;;;20.25;8.77;;;5.30;99.90;;;;;;4827769;29;20050;-77
2022/03/05 11:29:26;;;;;;;19.90;9.18;;;5.40;99.90;;;;;;4844379;29;20078;-73
2022/03/05 11:31:53;;;;;;;20.23;9.20;;;5.80;99.90;;;;;;4818145;29;20133;-76
2022/03/05 11:34:23;;;;;;;22.90;10.80;;;5.70;99.90;;;;;;4834779;29;20125;-77
2022/03/05 11:36:51;;;;;;;22.30;9.98;;;5.70;99.90;;;;;;4833557;29;20050;-76
2022/03/05 11:39:18;;;;;;;24.05;11.27;;;5.70;99.90;;;;;;4837302;29;20093;-74
2022/03/05 11:41:50;;;;;;;23.83;11.35;;;6.30;99.90;;;;;;4836187;29;20053;-75
2022/03/05 11:44:18;;;;;;;24.42;10.85;;;5.80;99.90;;;;;;4827311;29;20057;-74
2022/03/05 11:46:44;;;;;;;20.00;10.30;;;5.80;99.90;;;;;;4827713;29;20050;-76
2022/03/05 11:49:12;;;;;;;21.08;10.30;;;6.10;99.90;;;;;;4828052;29;20060;-75
2022/03/05 11:51:53;;;;;;;23.52;11.05;;;6.10;99.90;;;;;;4827380;29;20058;-75
2022/03/05 11:54:18;;;;;;;19.38;9.65;;;6.80;99.90;;;;;;4827264;29;20129;-76
2022/03/05 11:57:13;;;;;;;23.33;11.00;;;6.20;99.90;;;;;;4810997;29;20138;-74
2022/03/05 11:59:40;;;;;;;20.70;9.85;;;6.10;99.90;;;;;;4826871;29;20058;-76
2022/03/05 12:02:06;;;;;;;19.80;9.20;;;6.10;99.90;;;;;;4830941;29;20502;-75
2022/03/05 12:04:32;;;;;;;18.30;8.82;;;6.30;99.90;;;;;;4838274;29;20057;-74
2022/03/05 12:07:02;;;;;;;16.67;8.20;;;6.40;99.90;;;;;;4837240;29;20048;-76
2022/03/05 12:09:52;;;;;;;19.67;9.05;;;6.50;99.90;;;;;;4828193;29;20046;-76
2022/03/05 12:12:18;;;;;;;19.88;8.82;;;6.60;99.90;;;;;;4829580;29;20046;-76
2022/03/05 12:15:03;;;;;;;22.83;8.77;;;6.70;99.90;;;;;;4812003;29;20050;-75
2022/03/05 12:17:43;;;;;;;17.40;8.20;;;6.90;99.90;;;;;;4828816;29;20106;-77
2022/03/05 12:20:13;;;;;;;18.60;8.77;;;7.00;99.90;;;;;;4830107;29;20050;-76
2022/03/05 12:22:55;;;;;;;21.33;9.60;;;7.00;99.90;;;;;;4813084;29;20053;-76
2022/03/05 12:25:22;;;;;;;21.83;8.60;;;7.10;99.90;;;;;;4830252;29;20050;-77
2022/03/05 12:27:50;;;;;;;19.63;8.43;;;7.10;99.90;;;;;;4830733;29;20046;-75
2022/03/05 12:30:22;;;;;;;21.95;8.75;;;7.10;99.90;;;;;;4831547;29;20046;-77
2022/03/05 12:32:47;;;;;;;21.08;9.02;;;7.10;99.90;;;;;;4831380;29;20047;-77
2022/03/05 12:35:16;;;;;;;21.45;8.93;;;7.00;99.90;;;;;;4830917;29;20046;-77
2022/03/05 12:37:43;;;;;;;20.85;8.63;;;6.80;99.90;;;;;;4831353;29;20108;-77
2022/03/05 12:40:10;;;;;;;19.70;8.65;;;6.80;99.90;;;;;;4830737;29;20469;-76
2022/03/05 12:42:46;;;;;;;20.45;9.15;;;6.80;99.90;;;;;;4831305;29;20078;-77